Time;durP1;ratioP1;P1;durP2;ratioP2;P2;SDS_P1;SDS_P2;PMS_P1;PMS_P2;Temp;Humidity;BMP_temperature;BMP_pressure;BME280_temperature;BME280_humidity;BME280_pressure;Samples;Min_cycle;Max_cycle;Signal;HPM_P1;HPM_P2
2021/05/10 00:00:08;;;;;;;2.65;2.05;;;15.90;99.90;;;;;;5054298;28;20633;-58
2021/05/10 00:02:35;;;;;;;2.88;2.30;;;15.90;99.90;;;;;;5054570;28;20201;-59
2021/05/10 00:05:03;;;;;;;3.88;2.30;;;15.80;99.90;;;;;;5054701;28;20292;-59
2021/05/10 00:07:30;;;;;;;2.92;2.40;;;15.70;99.90;;;;;;5054734;28;20208;-59
2021/05/10 00:09:57;;;;;;;2.25;2.05;;;15.70;99.90;;;;;;5054643;28;20309;-59
2021/05/10 00:12:24;;;;;;;2.38;2.17;;;15.60;99.90;;;;;;5054201;28;20212;-58
2021/05/10 00:14:52;;;;;;;2.35;2.15;;;15.60;99.90;;;;;;5054199;28;20259;-59
2021/05/10 00:17:18;;;;;;;2.60;2.30;;;15.60;99.90;;;;;;5054385;28;20319;-58
2021/05/10 00:19:45;;;;;;;2.40;2.20;;;15.60;99.90;;;;;;5054183;28;20872;-58
2021/05/10 00:22:12;;;;;;;3.33;2.22;;;15.50;99.90;;;;;;5054401;28;20240;-59
2021/05/10 00:24:42;;;;;;;2.85;2.40;;;15.50;99.90;;;;;;5054177;28;20313;-58
2021/05/10 00:27:10;;;;;;;2.40;2.20;;;15.50;99.90;;;;;;5054056;28;20328;-58
2021/05/10 00:29:36;;;;;;;3.42;2.20;;;15.50;99.90;;;;;;5052936;28;20300;-59
2021/05/10 00:32:03;;;;;;;2.63;2.40;;;15.50;99.90;;;;;;5054260;28;20201;-59
2021/05/10 00:34:30;;;;;;;3.03;2.35;;;15.50;99.90;;;;;;5054372;28;20200;-58
2021/05/10 00:36:57;;;;;;;2.50;2.30;;;15.50;99.90;;;;;;5053837;28;20201;-59
2021/05/10 00:39:25;;;;;;;4.82;2.35;;;15.50;99.90;;;;;;5053900;28;20240;-59
2021/05/10 00:41:53;;;;;;;3.13;2.30;;;15.50;99.90;;;;;;5053740;28;20833;-58
2021/05/10 00:44:20;;;;;;;2.50;2.30;;;15.50;99.90;;;;;;5053630;28;20221;-58
2021/05/10 00:46:47;;;;;;;3.17;2.40;;;15.40;99.90;;;;;;5053864;28;20197;-58
2021/05/10 00:49:14;;;;;;;2.40;2.20;;;15.40;99.90;;;;;;5053657;28;20692;-59
2021/05/10 00:51:41;;;;;;;2.80;2.25;;;15.30;99.90;;;;;;5053848;28;20208;-58
2021/05/10 00:54:08;;;;;;;3.22;2.25;;;15.30;99.90;;;;;;5053505;28;20662;-59
2021/05/10 00:56:35;;;;;;;2.88;2.28;;;15.30;99.90;;;;;;5054058;28;20292;-58
2021/05/10 00:59:02;;;;;;;2.40;2.20;;;15.20;99.90;;;;;;5053054;28;20201;-60
2021/05/10 01:01:30;;;;;;;2.83;2.33;;;15.10;99.90;;;;;;5053519;28;20208;-59
2021/05/10 01:03:57;;;;;;;2.60;2.40;;;15.10;99.90;;;;;;5053235;28;20575;-58
2021/05/10 01:06:24;;;;;;;2.60;2.13;;;15.10;99.90;;;;;;5053671;28;20294;-59
2021/05/10 01:08:51;;;;;;;4.03;2.13;;;15.00;99.90;;;;;;5053422;28;20197;-59
2021/05/10 01:11:18;;;;;;;3.88;2.20;;;15.00;99.90;;;;;;5053492;28;20242;-59
2021/05/10 01:13:45;;;;;;;3.67;2.20;;;15.00;99.90;;;;;;5053091;28;20233;-60
2021/05/10 01:16:12;;;;;;;2.83;2.30;;;14.90;99.90;;;;;;5053245;28;20672;-58
2021/05/10 01:18:41;;;;;;;2.25;2.03;;;14.90;99.90;;;;;;5052894;28;20256;-59
2021/05/10 01:21:10;;;;;;;3.80;2.45;;;14.80;99.90;;;;;;5053321;28;20284;-59
2021/05/10 01:23:38;;;;;;;3.92;2.42;;;14.80;99.90;;;;;;5052887;28;20770;-59
2021/05/10 01:26:05;;;;;;;2.88;2.50;;;14.70;99.90;;;;;;5052890;28;20672;-59
2021/05/10 01:28:32;;;;;;;4.05;2.40;;;14.70;99.90;;;;;;5052450;28;20595;-58
2021/05/10 01:30:59;;;;;;;3.30;2.15;;;14.70;99.90;;;;;;5053147;28;20202;-59
2021/05/10 01:33:26;;;;;;;2.33;2.13;;;14.70;99.90;;;;;;5052751;28;20204;-59
2021/05/10 01:35:53;;;;;;;3.15;2.22;;;14.60;99.90;;;;;;5052766;28;20292;-59
2021/05/10 01:38:20;;;;;;;2.70;2.30;;;14.60;99.90;;;;;;5052900;28;20255;-59
2021/05/10 01:40:48;;;;;;;2.33;2.10;;;14.50;99.90;;;;;;5052839;28;20292;-58
2021/05/10 01:43:16;;;;;;;2.70;2.50;;;14.50;99.90;;;;;;5052573;28;20304;-58
2021/05/10 01:45:44;;;;;;;3.30;2.40;;;14.50;99.90;;;;;;5052868;28;20259;-58
2021/05/10 01:48:12;;;;;;;2.45;2.22;;;14.50;99.90;;;;;;5052798;28;20208;-59
2021/05/10 01:50:42;;;;;;;2.92;2.50;;;14.50;99.90;;;;;;5052760;28;20289;-59
2021/05/10 01:53:09;;;;;;;3.60;2.17;;;14.60;99.90;;;;;;5052612;28;20199;-59
2021/05/10 01:55:37;;;;;;;3.30;2.08;;;14.50;99.90;;;;;;5052794;28;20296;-59
2021/05/10 01:58:06;;;;;;;3.85;2.40;;;14.50;99.90;;;;;;5052262;28;20554;-59
2021/05/10 02:00:35;;;;;;;2.25;2.05;;;14.40;99.90;;;;;;5052482;28;20201;-59
2021/05/10 02:03:03;;;;;;;2.35;2.15;;;14.40;99.90;;;;;;5052522;28;20204;-59
2021/05/10 02:05:31;;;;;;;2.70;2.00;;;14.30;99.90;;;;;;5052504;28;20291;-59
2021/05/10 02:08:00;;;;;;;2.47;2.03;;;14.20;99.90;;;;;;5052180;28;20298;-59
2021/05/10 02:10:30;;;;;;;2.25;2.05;;;14.10;99.90;;;;;;5052044;28;20661;-59
2021/05/10 02:13:00;;;;;;;3.30;2.10;;;14.10;99.90;;;;;;5052166;28;20284;-59
2021/05/10 02:15:29;;;;;;;3.28;2.38;;;14.10;99.90;;;;;;5051771;28;20205;-58
2021/05/10 02:17:57;;;;;;;2.50;2.30;;;14.10;99.90;;;;;;5051883;28;20201;-57
2021/05/10 02:20:25;;;;;;;2.72;2.35;;;14.00;99.90;;;;;;5052449;28;20200;-60
2021/05/10 02:22:53;;;;;;;3.17;2.10;;;13.90;99.90;;;;;;5052405;28;20206;-59
2021/05/10 02:25:23;;;;;;;2.65;2.35;;;13.90;99.90;;;;;;5052209;28;20224;-60
2021/05/10 02:27:50;;;;;;;4.68;2.60;;;13.90;99.90;;;;;;5052116;28;20279;-58
2021/05/10 02:30:18;;;;;;;2.60;2.40;;;13.80;99.90;;;;;;5051891;28;20660;-58
2021/05/10 02:32:47;;;;;;;2.47;2.28;;;13.90;99.90;;;;;;5052330;28;20568;-60
2021/05/10 02:35:14;;;;;;;4.15;2.78;;;14.00;99.90;;;;;;5052022;28;20657;-59
2021/05/10 02:37:41;;;;;;;2.90;2.70;;;14.30;99.90;;;;;;5051996;28;20201;-58
2021/05/10 02:40:09;;;;;;;6.32;2.40;;;14.20;99.90;;;;;;5052190;28;20761;-58
2021/05/10 02:42:36;;;;;;;3.50;2.60;;;14.10;99.90;;;;;;5052215;28;20284;-58
2021/05/10 02:45:05;;;;;;;2.93;2.33;;;14.10;99.90;;;;;;5051869;28;20213;-59
2021/05/10 02:47:33;;;;;;;6.55;2.60;;;14.00;99.90;;;;;;5051968;28;20241;-59
2021/05/10 02:50:01;;;;;;;2.60;2.40;;;13.80;99.90;;;;;;5052162;28;20283;-59
2021/05/10 02:52:28;;;;;;;2.67;2.47;;;13.70;99.90;;;;;;5054453;28;20661;-59
2021/05/10 02:54:55;;;;;;;2.97;2.67;;;13.70;99.90;;;;;;5056066;28;20259;-65
2021/05/10 02:57:22;;;;;;;2.88;2.67;;;13.60;99.90;;;;;;5055990;28;20201;-64
2021/05/10 02:59:49;;;;;;;3.17;2.67;;;13.50;99.90;;;;;;5055581;28;20235;-67
2021/05/10 03:02:17;;;;;;;2.53;2.30;;;13.50;99.90;;;;;;5055646;28;20201;-65
2021/05/10 03:04:44;;;;;;;2.73;2.50;;;13.50;99.90;;;;;;5055822;28;20213;-65
2021/05/10 03:07:12;;;;;;;4.03;2.80;;;13.50;99.90;;;;;;5055459;28;20201;-65
2021/05/10 03:09:39;;;;;;;3.67;2.42;;;13.40;99.90;;;;;;5055625;28;20304;-65
2021/05/10 03:12:07;;;;;;;3.83;2.40;;;13.50;99.90;;;;;;5055674;28;20301;-66
2021/05/10 03:14:34;;;;;;;3.83;2.80;;;13.50;99.90;;;;;;5055418;28;20257;-65
2021/05/10 03:17:01;;;;;;;3.75;2.70;;;13.50;99.90;;;;;;5055637;28;20225;-64
2021/05/10 03:19:28;;;;;;;3.73;2.90;;;13.40;99.90;;;;;;5055626;28;20206;-64
2021/05/10 03:21:55;;;;;;;3.67;2.53;;;13.40;99.90;;;;;;5055418;28;20288;-65
2021/05/10 03:24:23;;;;;;;4.50;2.43;;;13.30;99.90;;;;;;5055454;28;20308;-64
2021/05/10 03:26:50;;;;;;;3.30;2.70;;;13.30;99.90;;;;;;5055211;28;20294;-64
2021/05/10 03:29:16;;;;;;;4.33;3.10;;;13.30;99.90;;;;;;5054782;28;20818;-65
2021/05/10 03:31:43;;;;;;;4.38;2.80;;;13.30;99.90;;;;;;5054739;28;20207;-65
2021/05/10 03:34:10;;;;;;;3.63;2.83;;;13.20;99.90;;;;;;5054795;28;20650;-65
2021/05/10 03:36:37;;;;;;;3.33;3.03;;;13.20;99.90;;;;;;5055103;28;20210;-64
2021/05/10 03:39:05;;;;;;;5.63;3.00;;;13.20;99.90;;;;;;5055293;28;20197;-65
2021/05/10 03:41:32;;;;;;;3.93;2.80;;;13.20;99.90;;;;;;5055207;28;20295;-65
2021/05/10 03:43:59;;;;;;;6.47;3.15;;;13.20;99.90;;;;;;5054560;28;20312;-65
2021/05/10 03:46:26;;;;;;;3.17;2.87;;;13.20;99.90;;;;;;5055103;28;20201;-65
2021/05/10 03:48:53;;;;;;;4.33;2.90;;;13.30;99.90;;;;;;5054834;28;20204;-65
2021/05/10 03:51:20;;;;;;;3.10;2.80;;;13.20;99.90;;;;;;5054993;28;20237;-59
2021/05/10 03:53:47;;;;;;;3.63;3.03;;;13.30;99.90;;;;;;5054851;28;20288;-60
2021/05/10 03:56:14;;;;;;;4.55;2.72;;;13.30;99.90;;;;;;5054836;28;20292;-59
2021/05/10 03:58:42;;;;;;;3.10;2.80;;;13.30;99.90;;;;;;5054284;28;20225;-58
2021/05/10 04:01:10;;;;;;;8.17;2.97;;;13.30;99.90;;;;;;5054911;28;20197;-58
2021/05/10 04:03:41;;;;;;;4.97;3.10;;;13.40;99.90;;;;;;5053567;28;20315;-60
2021/05/10 04:06:24;;;;;;;5.63;2.78;;;13.50;99.90;;;;;;5054824;28;20181;-59
2021/05/10 04:09:09;;;;;;;4.45;2.88;;;13.60;99.90;;;;;;5054716;28;20189;-61
2021/05/10 04:14:22;;;;;;;2.83;2.47;;;13.80;99.90;;;;;;5054593;28;20271;-58
2021/05/10 04:16:49;;;;;;;3.55;3.03;;;13.80;99.90;;;;;;5054449;28;20244;-60
2021/05/10 04:19:16;;;;;;;3.55;2.80;;;13.90;99.90;;;;;;5054495;28;20206;-60
2021/05/10 04:21:43;;;;;;;3.77;2.93;;;14.10;99.90;;;;;;5054282;28;20292;-59
2021/05/10 04:24:10;;;;;;;3.80;2.90;;;14.20;99.90;;;;;;5054291;28;20225;-59
2021/05/10 04:26:37;;;;;;;3.25;2.90;;;14.20;99.90;;;;;;5054108;28;20300;-59
2021/05/10 04:29:04;;;;;;;3.85;2.90;;;14.30;99.90;;;;;;5053999;28;20280;-59
2021/05/10 04:31:32;;;;;;;3.00;2.70;;;14.50;99.90;;;;;;5054240;28;20321;-59
2021/05/10 04:33:59;;;;;;;2.88;2.50;;;14.60;99.90;;;;;;5054058;28;20198;-59
2021/05/10 04:36:26;;;;;;;2.90;2.58;;;14.80;99.90;;;;;;5054060;28;20284;-59
2021/05/10 04:38:53;;;;;;;3.42;2.65;;;15.00;99.90;;;;;;5054036;28;20213;-58
2021/05/10 04:41:20;;;;;;;2.58;2.30;;;15.20;99.90;;;;;;5054070;28;20292;-59
2021/05/10 04:43:46;;;;;;;3.67;2.67;;;15.40;99.90;;;;;;5053681;28;20217;-59
2021/05/10 04:46:13;;;;;;;4.95;2.90;;;15.60;99.90;;;;;;5053590;28;20292;-58
2021/05/10 04:48:42;;;;;;;3.78;2.85;;;15.70;99.90;;;;;;5053596;28;20197;-59
2021/05/10 04:51:09;;;;;;;2.83;2.58;;;16.00;99.90;;;;;;5053836;28;20296;-60
2021/05/10 04:53:36;;;;;;;4.53;2.85;;;16.10;99.90;;;;;;5053256;28;20301;-59
2021/05/10 04:56:03;;;;;;;2.20;2.00;;;16.40;99.90;;;;;;5053675;28;20212;-59
2021/05/10 04:58:29;;;;;;;3.03;2.60;;;17.50;99.90;;;;;;5052814;28;20205;-59
2021/05/10 05:00:56;;;;;;;3.38;2.63;;;19.40;99.90;;;;;;5053647;28;20197;-59
2021/05/10 05:03:23;;;;;;;3.80;2.70;;;21.40;99.90;;;;;;5053168;28;20754;-60
2021/05/10 05:05:51;;;;;;;5.97;3.10;;;;;;;;;;5053239;28;20241;-58
2021/05/10 05:08:18;;;;;;;9.63;3.10;;;25.00;99.90;;;;;;5053158;28;20296;-59
2021/05/10 05:10:45;;;;;;;3.60;2.70;;;26.20;99.90;;;;;;5053398;28;20197;-60
2021/05/10 05:13:20;;;;;;;4.25;2.53;;;26.80;99.90;;;;;;5052714;28;20316;-59
2021/05/10 05:15:47;;;;;;;3.38;2.92;;;27.00;99.90;;;;;;5052754;28;20606;-59
2021/05/10 05:18:14;;;;;;;3.25;2.83;;;26.80;99.90;;;;;;5053223;28;20296;-58
2021/05/10 05:20:41;;;;;;;5.18;3.10;;;26.30;99.90;;;;;;5052998;28;20543;-60
2021/05/10 05:23:23;;;;;;;5.85;3.30;;;25.40;99.90;;;;;;5052905;28;20653;-59
2021/05/10 05:25:57;;;;;;;3.13;2.83;;;24.30;99.90;;;;;;5053181;28;20296;-57
2021/05/10 05:28:24;;;;;;;4.55;3.20;;;23.30;99.90;;;;;;5052657;28;20240;-58
2021/05/10 05:30:51;;;;;;;3.78;2.50;;;22.50;99.90;;;;;;5052879;28;20207;-60
2021/05/10 05:33:18;;;;;;;4.05;2.88;;;21.70;99.90;;;;;;5052987;28;20300;-59
2021/05/10 05:35:45;;;;;;;2.58;2.38;;;21.20;99.90;;;;;;5052802;28;20689;-58
2021/05/10 05:38:12;;;;;;;3.83;2.33;;;20.80;99.90;;;;;;5052747;28;20248;-58
2021/05/10 05:40:42;;;;;;;2.72;2.40;;;20.40;99.90;;;;;;5052468;28;20296;-59
2021/05/10 05:43:10;;;;;;;2.95;2.60;;;20.30;99.90;;;;;;5052484;28;20204;-58
2021/05/10 05:45:38;;;;;;;3.72;2.60;;;20.10;99.90;;;;;;5052160;28;20264;-59
2021/05/10 05:48:06;;;;;;;4.65;3.00;;;20.00;99.90;;;;;;5052334;28;20296;-61
2021/05/10 05:50:35;;;;;;;4.38;2.35;;;20.00;99.90;;;;;;5052073;28;20237;-59
2021/05/10 05:53:02;;;;;;;2.83;2.50;;;19.80;99.90;;;;;;5050496;28;20229;-59
2021/05/10 05:55:29;;;;;;;4.65;2.53;;;19.70;99.90;;;;;;5052403;28;20284;-59
2021/05/10 05:57:58;;;;;;;3.40;2.30;;;19.50;99.90;;;;;;5052213;28;20849;-59
2021/05/10 06:00:26;;;;;;;2.83;2.38;;;19.30;99.90;;;;;;5051761;28;20197;-58
2021/05/10 06:02:53;;;;;;;3.40;2.22;;;19.10;99.90;;;;;;5051829;28;20205;-58
2021/05/10 06:05:20;;;;;;;4.63;2.55;;;19.10;99.90;;;;;;5052175;28;20220;-57
2021/05/10 06:07:50;;;;;;;4.82;2.40;;;19.30;99.90;;;;;;5052298;28;20268;-59
2021/05/10 06:10:20;;;;;;;5.20;2.50;;;19.40;99.90;;;;;;5052263;28;20296;-58
2021/05/10 06:12:48;;;;;;;4.38;2.40;;;19.60;99.90;;;;;;5052127;28;20190;-59
2021/05/10 06:15:17;;;;;;;3.03;2.53;;;19.80;99.90;;;;;;5051840;28;20312;-58
2021/05/10 06:17:45;;;;;;;5.65;2.83;;;19.90;99.90;;;;;;5052123;28;20236;-59
2021/05/10 06:20:13;;;;;;;3.33;2.90;;;19.90;99.90;;;;;;5052365;28;20197;-58
2021/05/10 06:22:41;;;;;;;2.75;2.15;;;19.90;99.90;;;;;;5051506;28;20292;-58
2021/05/10 06:25:10;;;;;;;4.28;2.60;;;20.00;99.90;;;;;;5051997;28;20257;-58
2021/05/10 06:27:37;;;;;;;4.30;2.38;;;20.10;99.90;;;;;;5054723;28;20244;-59
2021/05/10 06:30:06;;;;;;;5.88;2.50;;;20.40;99.90;;;;;;5055862;28;20208;-59
2021/05/10 06:32:34;;;;;;;5.18;2.92;;;20.60;99.90;;;;;;5055736;28;20612;-59
2021/05/10 06:35:03;;;;;;;4.90;2.55;;;20.70;99.90;;;;;;5056246;28;20225;-60
2021/05/10 06:37:29;;;;;;;2.78;2.50;;;20.80;99.90;;;;;;5056324;28;20236;-59
2021/05/10 06:39:57;;;;;;;5.60;2.33;;;20.80;99.90;;;;;;5056236;28;20274;-59
2021/05/10 06:42:24;;;;;;;2.53;2.33;;;20.80;99.90;;;;;;5056067;28;20267;-59
2021/05/10 06:44:53;;;;;;;3.30;2.35;;;20.80;99.90;;;;;;5055773;28;20217;-59
2021/05/10 06:47:20;;;;;;;3.20;2.90;;;20.80;99.90;;;;;;5055969;28;20197;-58
2021/05/10 06:49:48;;;;;;;2.72;2.20;;;20.80;99.90;;;;;;5056015;28;20249;-59
2021/05/10 06:52:15;;;;;;;3.92;2.50;;;20.80;99.90;;;;;;5055917;28;20237;-59
2021/05/10 06:54:42;;;;;;;3.08;2.42;;;20.80;99.90;;;;;;5055952;28;20280;-58
2021/05/10 06:57:09;;;;;;;2.45;2.25;;;20.80;99.90;;;;;;5055985;28;20225;-59
2021/05/10 06:59:37;;;;;;;2.45;2.17;;;20.80;99.90;;;;;;5055327;28;20685;-60
2021/05/10 07:02:04;;;;;;;4.63;2.13;;;20.80;99.90;;;;;;5055917;28;20287;-59
2021/05/10 07:04:31;;;;;;;2.15;2.00;;;20.80;99.90;;;;;;5055703;28;20584;-59
2021/05/10 07:06:59;;;;;;;2.53;1.88;;;20.70;99.90;;;;;;5055807;28;20297;-59
2021/05/10 07:09:26;;;;;;;2.92;2.45;;;20.70;99.90;;;;;;5055479;28;20654;-59
2021/05/10 07:11:53;;;;;;;4.93;2.42;;;20.60;99.90;;;;;;5055645;28;20295;-59
2021/05/10 07:14:20;;;;;;;5.15;2.40;;;20.50;99.90;;;;;;5055106;28;20205;-59
2021/05/10 07:16:46;;;;;;;4.70;2.10;;;20.50;99.90;;;;;;5055587;28;20639;-58
2021/05/10 07:19:14;;;;;;;6.70;2.50;;;20.50;99.90;;;;;;5055552;28;20217;-59
2021/05/10 07:21:41;;;;;;;2.30;1.92;;;20.50;99.90;;;;;;5055463;28;20202;-59
2021/05/10 07:24:09;;;;;;;4.25;2.30;;;20.60;99.90;;;;;;5055258;28;20299;-59
2021/05/10 07:26:36;;;;;;;3.03;2.30;;;20.60;99.90;;;;;;5055190;28;20283;-58
2021/05/10 07:29:05;;;;;;;3.88;2.22;;;20.70;99.90;;;;;;5054911;28;20185;-59
2021/05/10 07:31:32;;;;;;;4.35;2.45;;;20.80;99.90;;;;;;5055230;28;20229;-59
2021/05/10 07:33:59;;;;;;;4.70;2.40;;;20.80;99.90;;;;;;5055028;28;20307;-61
2021/05/10 07:36:26;;;;;;;6.47;2.10;;;20.80;99.90;;;;;;5055127;28;20208;-59
2021/05/10 07:38:52;;;;;;;3.85;1.98;;;20.80;99.90;;;;;;5054488;28;20685;-59
2021/05/10 07:41:20;;;;;;;2.85;2.33;;;20.90;99.90;;;;;;5055103;28;20244;-60
2021/05/10 07:43:47;;;;;;;3.30;2.25;;;21.00;99.90;;;;;;5054644;28;20292;-60
2021/05/10 07:46:14;;;;;;;2.38;2.17;;;21.00;99.90;;;;;;5054934;28;20659;-59
2021/05/10 07:48:41;;;;;;;3.65;2.30;;;21.10;99.90;;;;;;5054941;28;20206;-60
2021/05/10 07:51:08;;;;;;;2.40;2.20;;;21.20;99.90;;;;;;5054885;28;20259;-60
2021/05/10 07:53:35;;;;;;;3.47;2.70;;;21.20;99.90;;;;;;5054474;28;20292;-58
2021/05/10 07:56:01;;;;;;;3.63;2.55;;;21.10;99.90;;;;;;5054885;28;20292;-58
2021/05/10 07:58:29;;;;;;;2.95;2.22;;;21.20;99.90;;;;;;5054424;28;20288;-59
2021/05/10 08:00:58;;;;;;;4.55;2.10;;;21.30;99.90;;;;;;5054695;28;20198;-58
2021/05/10 08:03:27;;;;;;;4.38;2.75;;;21.40;99.90;;;;;;5054262;28;20263;-59
2021/05/10 08:05:54;;;;;;;3.55;2.40;;;21.60;99.90;;;;;;5053888;28;20567;-59
2021/05/10 08:08:23;;;;;;;3.20;2.47;;;21.70;99.90;;;;;;5054423;28;20267;-58
2021/05/10 08:10:51;;;;;;;4.70;2.47;;;21.90;99.90;;;;;;5054476;28;20212;-59
2021/05/10 08:13:18;;;;;;;2.38;2.20;;;22.10;99.90;;;;;;5054183;28;20209;-59
2021/05/10 08:15:46;;;;;;;3.75;1.92;;;22.20;99.90;;;;;;5053770;28;20289;-59
2021/05/10 08:18:13;;;;;;;2.92;2.42;;;22.40;99.90;;;;;;5054027;28;20665;-58
2021/05/10 08:20:42;;;;;;;3.03;2.17;;;22.40;99.90;;;;;;5054334;28;20201;-59
2021/05/10 08:23:09;;;;;;;3.92;2.45;;;22.40;99.90;;;;;;5054254;28;20201;-59
2021/05/10 08:25:38;;;;;;;2.55;2.15;;;22.50;99.90;;;;;;5054208;28;20311;-59
2021/05/10 08:28:05;;;;;;;4.00;2.42;;;22.50;99.90;;;;;;5053893;28;20593;-59
2021/05/10 08:30:32;;;;;;;2.80;2.13;;;22.50;99.90;;;;;;5053538;28;20322;-58
2021/05/10 08:33:01;;;;;;;3.30;2.10;;;22.60;99.90;;;;;;5054131;28;20201;-58
2021/05/10 08:35:28;;;;;;;5.53;2.47;;;22.70;99.90;;;;;;5053841;28;20251;-59
2021/05/10 08:37:58;;;;;;;5.40;2.58;;;22.70;99.90;;;;;;5044870;28;20209;-58
2021/05/10 08:40:25;;;;;;;3.13;2.30;;;22.80;99.90;;;;;;5039499;28;20253;-60
2021/05/10 08:42:52;;;;;;;4.75;2.75;;;22.90;99.90;;;;;;5053497;28;20687;-59
2021/05/10 08:45:20;;;;;;;5.75;2.47;;;22.90;99.90;;;;;;5053265;28;20251;-60
2021/05/10 08:47:47;;;;;;;2.40;2.05;;;23.00;99.90;;;;;;5053394;28;20563;-59
2021/05/10 08:50:16;;;;;;;6.53;2.47;;;23.00;99.90;;;;;;5052953;28;20237;-59
2021/05/10 08:52:43;;;;;;;4.05;2.45;;;23.10;99.90;;;;;;5053656;28;20227;-59
2021/05/10 08:55:14;;;;;;;2.95;2.38;;;23.20;99.90;;;;;;5053702;28;20292;-58
2021/05/10 08:57:41;;;;;;;2.72;2.22;;;23.30;99.90;;;;;;5053328;28;20666;-59
2021/05/10 09:00:12;;;;;;;4.32;2.65;;;23.60;99.90;;;;;;5052943;28;20232;-58
2021/05/10 09:02:39;;;;;;;3.47;2.83;;;23.80;99.90;;;;;;5053061;28;20272;-60
2021/05/10 09:05:14;;;;;;;3.97;2.22;;;23.90;99.90;;;;;;5052892;28;20315;-59
2021/05/10 09:07:43;;;;;;;4.15;2.20;;;24.20;99.90;;;;;;5052602;28;20181;-59
2021/05/10 09:10:12;;;;;;;3.80;2.10;;;24.30;99.90;;;;;;5052784;28;20288;-58
2021/05/10 09:12:47;;;;;;;8.70;2.53;;;24.50;99.90;;;;;;5052936;28;20689;-58
2021/05/10 09:15:22;;;;;;;2.60;2.22;;;24.60;99.90;;;;;;5052331;28;20272;-59
2021/05/10 09:17:51;;;;;;;5.03;2.30;;;24.60;99.90;;;;;;5053061;28;20181;-59
2021/05/10 09:20:21;;;;;;;4.90;2.15;;;24.60;99.90;;;;;;5052660;28;20728;-59
2021/05/10 09:22:53;;;;;;;3.08;2.17;;;24.70;99.90;;;;;;5053147;28;20201;-58
2021/05/10 09:25:28;;;;;;;2.53;2.20;;;24.80;99.90;;;;;;5052812;28;20578;-59
2021/05/10 09:28:09;;;;;;;3.05;2.00;;;24.90;99.90;;;;;;5052574;28;20232;-59
2021/05/10 09:30:36;;;;;;;7.40;2.42;;;24.90;99.90;;;;;;5052741;28;20582;-58
2021/05/10 09:33:03;;;;;;;2.88;2.40;;;24.90;99.90;;;;;;5052801;28;20205;-60
2021/05/10 09:35:31;;;;;;;4.72;2.60;;;24.90;99.90;;;;;;5052669;28;20202;-59
2021/05/10 09:38:05;;;;;;;3.13;2.25;;;25.00;99.90;;;;;;5052686;28;20240;-59
2021/05/10 09:40:48;;;;;;;2.78;2.10;;;25.00;99.90;;;;;;5052748;28;20189;-59
2021/05/10 09:43:18;;;;;;;4.50;2.30;;;25.00;99.90;;;;;;5052082;28;20178;-59
2021/05/10 09:45:47;;;;;;;3.10;2.50;;;25.00;99.90;;;;;;5052015;28;20312;-59
2021/05/10 09:48:17;;;;;;;3.95;2.30;;;25.00;99.90;;;;;;5051754;28;20260;-60
2021/05/10 09:50:46;;;;;;;10.25;2.53;;;25.00;99.90;;;;;;5052395;28;20202;-59
2021/05/10 09:53:19;;;;;;;4.32;2.30;;;25.10;99.90;;;;;;5052125;28;20205;-59
2021/05/10 09:55:49;;;;;;;4.97;2.00;;;25.20;99.90;;;;;;5052173;28;20563;-53
2021/05/10 09:58:19;;;;;;;4.10;2.22;;;25.40;99.90;;;;;;5052049;28;20205;-60
2021/05/10 10:00:51;;;;;;;6.85;2.65;;;25.60;99.90;;;;;;5051446;28;20273;-59
2021/05/10 10:03:35;;;;;;;4.97;2.35;;;25.70;99.90;;;;;;5052424;28;20198;-59
2021/05/10 10:06:08;;;;;;;7.00;2.55;;;25.90;99.90;;;;;;5052192;28;20206;-58
2021/05/10 10:08:38;;;;;;;4.10;2.30;;;26.10;99.90;;;;;;5052288;28;20280;-58
2021/05/10 10:11:08;;;;;;;4.57;2.13;;;26.20;99.90;;;;;;5052269;28;20233;-59
2021/05/10 10:13:36;;;;;;;3.78;2.47;;;26.50;99.90;;;;;;5051909;28;20639;-58
2021/05/10 10:16:07;;;;;;;2.65;2.15;;;26.60;99.90;;;;;;5052367;28;20194;-59
2021/05/10 10:18:37;;;;;;;2.33;2.13;;;26.70;99.90;;;;;;5051946;28;20595;-59
2021/05/10 10:21:05;;;;;;;4.68;2.45;;;26.70;99.90;;;;;;5052283;28;20293;-59
2021/05/10 10:23:33;;;;;;;3.03;1.98;;;26.80;99.90;;;;;;5051951;28;20213;-59
2021/05/10 10:26:04;;;;;;;3.28;2.40;;;26.90;99.90;;;;;;5051810;28;20307;-59
2021/05/10 10:28:33;;;;;;;3.50;2.38;;;27.00;99.90;;;;;;5051677;28;20324;-59
2021/05/10 10:31:03;;;;;;;2.65;2.40;;;27.10;99.90;;;;;;5052183;28;20551;-58
2021/05/10 10:33:35;;;;;;;2.70;2.30;;;27.10;99.90;;;;;;5051911;28;20545;-57
2021/05/10 10:36:03;;;;;;;3.35;2.53;;;27.10;99.90;;;;;;5051878;28;20217;-59
2021/05/10 10:38:32;;;;;;;3.05;2.30;;;27.20;99.90;;;;;;5051696;28;20243;-58
2021/05/10 10:41:19;;;;;;;2.25;2.05;;;27.10;99.90;;;;;;5052044;28;20300;-58
2021/05/10 10:43:47;;;;;;;3.03;2.55;;;27.00;99.90;;;;;;5051732;28;20230;-59
2021/05/10 10:46:31;;;;;;;3.25;2.28;;;26.80;99.90;;;;;;5051620;28;20577;-58
2021/05/10 10:49:26;;;;;;;3.75;2.30;;;26.60;99.90;;;;;;5051913;28;20228;-58
2021/05/10 10:51:53;;;;;;;3.03;2.20;;;26.50;99.90;;;;;;5051738;28;20322;-58
2021/05/10 10:54:21;;;;;;;2.92;2.22;;;26.40;99.90;;;;;;5051818;28;20201;-58
2021/05/10 10:56:54;;;;;;;2.80;2.60;;;26.30;99.90;;;;;;5051519;28;20217;-60
2021/05/10 10:59:36;;;;;;;2.63;2.28;;;26.30;99.90;;;;;;5051656;28;20193;-59
2021/05/10 11:02:21;;;;;;;3.55;2.10;;;26.30;99.90;;;;;;5051968;28;20186;-59
2021/05/10 11:05:07;;;;;;;3.35;2.03;;;26.30;99.90;;;;;;5051463;28;20299;-59
2021/05/10 11:07:47;;;;;;;3.28;2.30;;;26.20;99.90;;;;;;5051648;28;20634;-59
2021/05/10 11:10:56;;;;;;;2.25;2.05;;;26.20;99.90;;;;;;5051602;28;20869;-59
2021/05/10 11:13:40;;;;;;;2.28;2.00;;;26.30;99.90;;;;;;5006592;28;20225;-59
2021/05/10 11:16:14;;;;;;;3.85;2.42;;;26.40;99.90;;;;;;5055471;28;20258;-57
2021/05/10 11:18:44;;;;;;;2.28;1.90;;;26.40;99.90;;;;;;5055212;28;20630;-58
2021/05/10 11:21:42;;;;;;;5.55;2.00;;;26.40;99.90;;;;;;5055365;28;20217;-58
2021/05/10 11:24:12;;;;;;;5.80;2.10;;;26.40;99.90;;;;;;5055347;28;20197;-58
2021/05/10 11:26:43;;;;;;;5.60;2.00;;;26.40;99.90;;;;;;5055115;28;20361;-59
2021/05/10 11:29:12;;;;;;;4.60;2.30;;;26.30;99.90;;;;;;5055028;28;20493;-59
2021/05/10 11:31:42;;;;;;;6.20;2.10;;;26.30;99.90;;;;;;5055052;28;20259;-59
2021/05/10 11:34:11;;;;;;;2.60;1.98;;;26.40;99.40;;;;;;5055228;28;20201;-59
2021/05/10 11:36:52;;;;;;;12.38;2.97;;;26.50;99.80;;;;;;5055106;28;20233;-59
2021/05/10 11:39:26;;;;;;;4.72;2.30;;;26.60;99.90;;;;;;5054690;28;20229;-58
2021/05/10 11:41:58;;;;;;;8.32;2.72;;;26.70;99.50;;;;;;5054931;28;20191;-58
2021/05/10 11:44:28;;;;;;;2.22;1.80;;;26.70;99.60;;;;;;5054749;28;20267;-58
2021/05/10 11:46:56;;;;;;;1.88;1.73;;;26.60;98.80;;;;;;5055015;28;20201;-58
2021/05/10 11:49:26;;;;;;;2.08;1.80;;;26.60;99.40;;;;;;5055026;28;20201;-58
2021/05/10 11:51:54;;;;;;;2.83;1.90;;;26.70;99.70;;;;;;5054907;28;20192;-58
2021/05/10 11:54:22;;;;;;;1.92;1.73;;;26.80;98.70;;;;;;5054817;28;20205;-58
2021/05/10 11:56:55;;;;;;;2.33;1.80;;;26.80;98.70;;;;;;5054913;28;20224;-59
2021/05/10 11:59:36;;;;;;;2.38;1.85;;;26.90;99.10;;;;;;5054594;28;20259;-59
2021/05/10 12:02:19;;;;;;;2.25;1.70;;;26.90;98.10;;;;;;5054866;28;20356;-59
2021/05/10 12:04:49;;;;;;;2.65;1.80;;;27.00;98.60;;;;;;5054467;28;20182;-58
2021/05/10 12:07:16;;;;;;;1.63;1.52;;;27.10;98.20;;;;;;5054499;28;20292;-59
2021/05/10 12:09:46;;;;;;;1.90;1.70;;;27.20;97.10;;;;;;5054942;28;20197;-58
2021/05/10 12:12:29;;;;;;;2.25;1.80;;;27.20;97.30;;;;;;5054527;28;20756;-59
2021/05/10 12:15:01;;;;;;;2.58;1.70;;;27.30;97.20;;;;;;5054239;28;20495;-57
2021/05/10 12:17:30;;;;;;;1.90;1.80;;;27.30;97.40;;;;;;5054348;28;20194;-66
2021/05/10 12:19:59;;;;;;;3.05;1.77;;;27.40;97.00;;;;;;5054589;28;20284;-65
2021/05/10 12:22:33;;;;;;;2.38;1.63;;;27.40;97.10;;;;;;5054524;28;20611;-65
2021/05/10 12:25:06;;;;;;;3.08;2.10;;;27.40;97.80;;;;;;5053580;28;20231;-66
2021/05/10 12:27:49;;;;;;;3.55;1.80;;;27.50;98.00;;;;;;5054202;28;20260;-65
2021/05/10 12:30:26;;;;;;;2.67;1.50;;;27.50;97.70;;;;;;5053997;28;20188;-65
2021/05/10 12:32:56;;;;;;;2.25;1.88;;;27.50;97.40;;;;;;5054228;28;20181;-66
2021/05/10 12:35:26;;;;;;;3.55;1.65;;;27.50;97.50;;;;;;5054122;28;20192;-66
2021/05/10 12:37:54;;;;;;;2.78;1.80;;;27.50;96.80;;;;;;5053916;28;20695;-66
2021/05/10 12:40:23;;;;;;;2.15;1.45;;;27.50;97.50;;;;;;5054088;28;20296;-65
2021/05/10 12:43:05;;;;;;;2.20;1.90;;;27.60;96.50;;;;;;5053597;28;20201;-65
2021/05/10 12:45:33;;;;;;;4.22;1.90;;;27.60;96.20;;;;;;5053567;28;20312;-65
2021/05/10 12:48:11;;;;;;;3.65;1.70;;;27.70;96.10;;;;;;5053717;28;20244;-66
2021/05/10 12:50:40;;;;;;;2.83;1.80;;;27.70;95.60;;;;;;5053304;28;20231;-65
2021/05/10 12:53:07;;;;;;;3.65;1.65;;;27.60;96.30;;;;;;5053599;28;20304;-66
2021/05/10 12:55:36;;;;;;;1.40;1.30;;;27.70;95.40;;;;;;5053469;28;20201;-65
2021/05/10 12:58:22;;;;;;;4.30;1.60;;;27.70;94.50;;;;;;5053398;28;20275;-66
2021/05/10 13:00:50;;;;;;;2.10;1.45;;;27.60;94.60;;;;;;5033516;28;20182;-66